sensor_id;sensor_type;location;lat;lon;timestamp;P1;durP1;ratioP1;P2;durP2;ratioP2
18364;SDS011;9309;52.126;11.616;2023-04-06T00:02:27;9.07;;;6.83;;
18364;SDS011;9309;52.126;11.616;2023-04-06T00:04:54;10.57;;;7.10;;
18364;SDS011;9309;52.126;11.616;2023-04-06T00:07:21;14.87;;;7.20;;
18364;SDS011;9309;52.126;11.616;2023-04-06T00:09:48;14.30;;;7.67;;
18364;SDS011;9309;52.126;11.616;2023-04-06T00:12:15;12.50;;;7.50;;
18364;SDS011;9309;52.126;11.616;2023-04-06T00:14:41;9.83;;;7.17;;
18364;SDS011;9309;52.126;11.616;2023-04-06T00:17:08;12.00;;;7.33;;
18364;SDS011;9309;52.126;11.616;2023-04-06T00:19:36;10.77;;;6.70;;
18364;SDS011;9309;52.126;11.616;2023-04-06T00:22:03;11.03;;;7.67;;
18364;SDS011;9309;52.126;11.616;2023-04-06T00:24:30;25.80;;;8.43;;
18364;SDS011;9309;52.126;11.616;2023-04-06T00:26:56;9.80;;;6.93;;
18364;SDS011;9309;52.126;11.616;2023-04-06T00:29:23;16.27;;;7.80;;
18364;SDS011;9309;52.126;11.616;2023-04-06T00:31:50;10.90;;;7.93;;
18364;SDS011;9309;52.126;11.616;2023-04-06T00:34:16;11.23;;;8.40;;
18364;SDS011;9309;52.126;11.616;2023-04-06T00:36:44;12.40;;;7.73;;
18364;SDS011;9309;52.126;11.616;2023-04-06T00:39:11;11.50;;;7.50;;
18364;SDS011;9309;52.126;11.616;2023-04-06T00:44:05;10.30;;;7.13;;
18364;SDS011;9309;52.126;11.616;2023-04-06T00:46:32;11.83;;;7.90;;
18364;SDS011;9309;52.126;11.616;2023-04-06T00:48:59;14.33;;;7.33;;
18364;SDS011;9309;52.126;11.616;2023-04-06T00:51:25;15.37;;;7.57;;
18364;SDS011;9309;52.126;11.616;2023-04-06T00:53:53;11.20;;;7.07;;
18364;SDS011;9309;52.126;11.616;2023-04-06T00:56:21;10.77;;;7.43;;
18364;SDS011;9309;52.126;11.616;2023-04-06T00:58:51;12.70;;;7.77;;
18364;SDS011;9309;52.126;11.616;2023-04-06T01:01:18;9.77;;;7.30;;
18364;SDS011;9309;52.126;11.616;2023-04-06T01:03:47;10.93;;;7.23;;
18364;SDS011;9309;52.126;11.616;2023-04-06T01:06:16;10.80;;;7.50;;
18364;SDS011;9309;52.126;11.616;2023-04-06T01:08:50;14.27;;;7.90;;
18364;SDS011;9309;52.126;11.616;2023-04-06T01:11:23;12.73;;;7.77;;
18364;SDS011;9309;52.126;11.616;2023-04-06T01:13:51;9.63;;;7.57;;
18364;SDS011;9309;52.126;11.616;2023-04-06T01:16:41;13.20;;;8.10;;
18364;SDS011;9309;52.126;11.616;2023-04-06T01:19:16;16.90;;;7.80;;
18364;SDS011;9309;52.126;11.616;2023-04-06T01:21:47;16.63;;;8.90;;
18364;SDS011;9309;52.126;11.616;2023-04-06T01:24:32;13.40;;;8.00;;
18364;SDS011;9309;52.126;11.616;2023-04-06T01:27:02;19.37;;;7.80;;
18364;SDS011;9309;52.126;11.616;2023-04-06T01:29:50;13.33;;;8.43;;
18364;SDS011;9309;52.126;11.616;2023-04-06T01:32:31;15.93;;;8.17;;
18364;SDS011;9309;52.126;11.616;2023-04-06T01:34:58;12.50;;;7.80;;
18364;SDS011;9309;52.126;11.616;2023-04-06T01:37:25;17.73;;;8.60;;
18364;SDS011;9309;52.126;11.616;2023-04-06T01:39:56;16.33;;;8.30;;
18364;SDS011;9309;52.126;11.616;2023-04-06T01:42:36;13.30;;;8.30;;
18364;SDS011;9309;52.126;11.616;2023-04-06T01:45:03;19.83;;;9.10;;
18364;SDS011;9309;52.126;11.616;2023-04-06T01:47:31;16.43;;;9.00;;
18364;SDS011;9309;52.126;11.616;2023-04-06T01:49:58;17.47;;;7.87;;
18364;SDS011;9309;52.126;11.616;2023-04-06T01:52:25;11.47;;;8.00;;
18364;SDS011;9309;52.126;11.616;2023-04-06T01:54:53;13.77;;;8.20;;
18364;SDS011;9309;52.126;11.616;2023-04-06T01:57:36;19.60;;;8.20;;
18364;SDS011;9309;52.126;11.616;2023-04-06T02:00:11;16.57;;;8.87;;
18364;SDS011;9309;52.126;11.616;2023-04-06T02:02:39;12.37;;;8.33;;
18364;SDS011;9309;52.126;11.616;2023-04-06T02:05:12;13.40;;;8.30;;
18364;SDS011;9309;52.126;11.616;2023-04-06T02:07:40;15.33;;;8.13;;
18364;SDS011;9309;52.126;11.616;2023-04-06T02:10:11;16.87;;;8.77;;
18364;SDS011;9309;52.126;11.616;2023-04-06T02:12:39;18.60;;;8.87;;
18364;SDS011;9309;52.126;11.616;2023-04-06T02:15:09;12.93;;;8.37;;
18364;SDS011;9309;52.126;11.616;2023-04-06T02:17:38;11.17;;;8.10;;
18364;SDS011;9309;52.126;11.616;2023-04-06T02:20:05;13.27;;;7.80;;
18364;SDS011;9309;52.126;11.616;2023-04-06T02:22:32;11.17;;;8.13;;
18364;SDS011;9309;52.126;11.616;2023-04-06T02:24:59;14.03;;;8.40;;
18364;SDS011;9309;52.126;11.616;2023-04-06T02:27:26;10.90;;;7.83;;
18364;SDS011;9309;52.126;11.616;2023-04-06T02:29:54;13.37;;;7.87;;
18364;SDS011;9309;52.126;11.616;2023-04-06T02:32:22;11.67;;;8.03;;
18364;SDS011;9309;52.126;11.616;2023-04-06T02:34:49;11.43;;;7.43;;
18364;SDS011;9309;52.126;11.616;2023-04-06T02:37:18;14.47;;;7.50;;
18364;SDS011;9309;52.126;11.616;2023-04-06T02:39:45;9.60;;;6.63;;
18364;SDS011;9309;52.126;11.616;2023-04-06T02:42:12;10.20;;;7.17;;
18364;SDS011;9309;52.126;11.616;2023-04-06T02:44:41;8.17;;;6.90;;
18364;SDS011;9309;52.126;11.616;2023-04-06T02:47:09;8.43;;;7.20;;
18364;SDS011;9309;52.126;11.616;2023-04-06T02:49:38;13.63;;;7.43;;
18364;SDS011;9309;52.126;11.616;2023-04-06T02:52:05;12.20;;;7.17;;
18364;SDS011;9309;52.126;11.616;2023-04-06T02:54:34;9.60;;;7.00;;
18364;SDS011;9309;52.126;11.616;2023-04-06T02:57:02;14.13;;;6.97;;
18364;SDS011;9309;52.126;11.616;2023-04-06T02:59:37;9.23;;;7.00;;
18364;SDS011;9309;52.126;11.616;2023-04-06T03:02:12;11.13;;;7.30;;
18364;SDS011;9309;52.126;11.616;2023-04-06T03:04:39;10.17;;;7.03;;
18364;SDS011;9309;52.126;11.616;2023-04-06T03:07:16;13.27;;;7.60;;
18364;SDS011;9309;52.126;11.616;2023-04-06T03:09:43;10.37;;;6.83;;
18364;SDS011;9309;52.126;11.616;2023-04-06T03:12:10;15.20;;;8.10;;
18364;SDS011;9309;52.126;11.616;2023-04-06T03:14:57;9.30;;;7.33;;
18364;SDS011;9309;52.126;11.616;2023-04-06T03:17:25;11.03;;;7.33;;
18364;SDS011;9309;52.126;11.616;2023-04-06T03:19:55;10.07;;;7.33;;
18364;SDS011;9309;52.126;11.616;2023-04-06T03:22:22;10.13;;;7.20;;
18364;SDS011;9309;52.126;11.616;2023-04-06T03:24:49;12.13;;;6.90;;
18364;SDS011;9309;52.126;11.616;2023-04-06T03:27:16;14.77;;;7.30;;
18364;SDS011;9309;52.126;11.616;2023-04-06T03:29:44;12.23;;;7.37;;
18364;SDS011;9309;52.126;11.616;2023-04-06T03:32:14;15.13;;;7.80;;
18364;SDS011;9309;52.126;11.616;2023-04-06T03:34:42;12.07;;;7.40;;
18364;SDS011;9309;52.126;11.616;2023-04-06T03:37:09;10.47;;;6.93;;
18364;SDS011;9309;52.126;11.616;2023-04-06T03:39:44;10.30;;;7.97;;
18364;SDS011;9309;52.126;11.616;2023-04-06T03:42:16;11.47;;;7.93;;
18364;SDS011;9309;52.126;11.616;2023-04-06T03:44:49;11.63;;;7.87;;
18364;SDS011;9309;52.126;11.616;2023-04-06T03:47:16;8.77;;;6.93;;
18364;SDS011;9309;52.126;11.616;2023-04-06T03:49:44;11.07;;;7.20;;
18364;SDS011;9309;52.126;11.616;2023-04-06T03:52:13;12.90;;;7.97;;
18364;SDS011;9309;52.126;11.616;2023-04-06T03:54:39;15.77;;;7.77;;
18364;SDS011;9309;52.126;11.616;2023-04-06T03:57:09;10.57;;;7.80;;
18364;SDS011;9309;52.126;11.616;2023-04-06T03:59:36;13.47;;;8.37;;
18364;SDS011;9309;52.126;11.616;2023-04-06T04:02:02;16.03;;;7.70;;
18364;SDS011;9309;52.126;11.616;2023-04-06T04:04:29;11.50;;;7.63;;
18364;SDS011;9309;52.126;11.616;2023-04-06T04:06:58;11.93;;;7.97;;
18364;SDS011;9309;52.126;11.616;2023-04-06T04:09:25;13.93;;;8.13;;
18364;SDS011;9309;52.126;11.616;2023-04-06T04:11:51;17.00;;;7.77;;
18364;SDS011;9309;52.126;11.616;2023-04-06T04:14:19;12.57;;;8.20;;
18364;SDS011;9309;52.126;11.616;2023-04-06T04:16:46;17.27;;;8.90;;
18364;SDS011;9309;52.126;11.616;2023-04-06T04:19:12;14.53;;;8.03;;
18364;SDS011;9309;52.126;11.616;2023-04-06T04:21:42;13.43;;;8.10;;
18364;SDS011;9309;52.126;11.616;2023-04-06T04:24:13;13.37;;;8.50;;
18364;SDS011;9309;52.126;11.616;2023-04-06T04:26:40;14.97;;;8.37;;
18364;SDS011;9309;52.126;11.616;2023-04-06T04:29:07;12.37;;;8.50;;
18364;SDS011;9309;52.126;11.616;2023-04-06T04:31:35;16.63;;;8.50;;
18364;SDS011;9309;52.126;11.616;2023-04-06T04:34:06;10.37;;;7.90;;
18364;SDS011;9309;52.126;11.616;2023-04-06T04:36:33;14.50;;;8.83;;
18364;SDS011;9309;52.126;11.616;2023-04-06T04:39:03;17.27;;;8.63;;
18364;SDS011;9309;52.126;11.616;2023-04-06T04:41:37;13.80;;;8.67;;
18364;SDS011;9309;52.126;11.616;2023-04-06T04:44:07;15.13;;;8.63;;
18364;SDS011;9309;52.126;11.616;2023-04-06T04:46:33;14.43;;;8.57;;
18364;SDS011;9309;52.126;11.616;2023-04-06T04:49:01;13.63;;;8.97;;
18364;SDS011;9309;52.126;11.616;2023-04-06T04:51:29;21.53;;;8.93;;
18364;SDS011;9309;52.126;11.616;2023-04-06T04:54:08;17.27;;;9.07;;
18364;SDS011;9309;52.126;11.616;2023-04-06T04:56:34;17.47;;;8.83;;
18364;SDS011;9309;52.126;11.616;2023-04-06T04:59:13;19.13;;;9.50;;
18364;SDS011;9309;52.126;11.616;2023-04-06T05:01:45;17.53;;;8.53;;
18364;SDS011;9309;52.126;11.616;2023-04-06T05:04:12;19.13;;;9.13;;
18364;SDS011;9309;52.126;11.616;2023-04-06T05:06:39;12.37;;;8.77;;
18364;SDS011;9309;52.126;11.616;2023-04-06T05:09:06;17.83;;;9.00;;
18364;SDS011;9309;52.126;11.616;2023-04-06T05:11:33;16.20;;;9.77;;
18364;SDS011;9309;52.126;11.616;2023-04-06T05:14:01;18.90;;;10.03;;
18364;SDS011;9309;52.126;11.616;2023-04-06T05:16:28;11.73;;;8.43;;
18364;SDS011;9309;52.126;11.616;2023-04-06T05:18:55;14.87;;;8.73;;
18364;SDS011;9309;52.126;11.616;2023-04-06T05:21:24;17.37;;;10.00;;
18364;SDS011;9309;52.126;11.616;2023-04-06T05:23:59;21.63;;;9.63;;
18364;SDS011;9309;52.126;11.616;2023-04-06T05:26:28;20.57;;;10.57;;
18364;SDS011;9309;52.126;11.616;2023-04-06T05:29:02;20.53;;;10.40;;
18364;SDS011;9309;52.126;11.616;2023-04-06T05:31:32;14.53;;;9.37;;
18364;SDS011;9309;52.126;11.616;2023-04-06T05:33:58;16.67;;;10.03;;
18364;SDS011;9309;52.126;11.616;2023-04-06T05:36:30;20.43;;;11.07;;
18364;SDS011;9309;52.126;11.616;2023-04-06T05:39:01;16.57;;;9.33;;
18364;SDS011;9309;52.126;11.616;2023-04-06T05:41:36;18.33;;;9.27;;
18364;SDS011;9309;52.126;11.616;2023-04-06T05:44:04;15.73;;;9.30;;
18364;SDS011;9309;52.126;11.616;2023-04-06T05:46:32;20.47;;;9.23;;
18364;SDS011;9309;52.126;11.616;2023-04-06T05:48:59;15.97;;;9.40;;
18364;SDS011;9309;52.126;11.616;2023-04-06T05:51:30;21.00;;;9.10;;
18364;SDS011;9309;52.126;11.616;2023-04-06T05:53:56;14.43;;;8.03;;
18364;SDS011;9309;52.126;11.616;2023-04-06T05:56:24;16.10;;;8.90;;
18364;SDS011;9309;52.126;11.616;2023-04-06T05:58:52;17.17;;;8.93;;
18364;SDS011;9309;52.126;11.616;2023-04-06T06:01:25;13.07;;;8.77;;
18364;SDS011;9309;52.126;11.616;2023-04-06T06:03:51;16.13;;;8.20;;
18364;SDS011;9309;52.126;11.616;2023-04-06T06:06:19;25.77;;;8.97;;
18364;SDS011;9309;52.126;11.616;2023-04-06T06:09:15;10.10;;;7.77;;
18364;SDS011;9309;52.126;11.616;2023-04-06T06:11:57;15.57;;;8.50;;
18364;SDS011;9309;52.126;11.616;2023-04-06T06:14:26;16.63;;;8.40;;
18364;SDS011;9309;52.126;11.616;2023-04-06T06:16:54;15.07;;;8.37;;
18364;SDS011;9309;52.126;11.616;2023-04-06T06:19:22;13.60;;;7.53;;
18364;SDS011;9309;52.126;11.616;2023-04-06T06:21:51;10.40;;;8.07;;
18364;SDS011;9309;52.126;11.616;2023-04-06T06:24:17;15.40;;;7.90;;
18364;SDS011;9309;52.126;11.616;2023-04-06T06:26:44;13.37;;;8.47;;
18364;SDS011;9309;52.126;11.616;2023-04-06T06:29:14;13.07;;;8.83;;
18364;SDS011;9309;52.126;11.616;2023-04-06T06:31:42;14.90;;;8.53;;
18364;SDS011;9309;52.126;11.616;2023-04-06T06:34:10;19.57;;;8.20;;
18364;SDS011;9309;52.126;11.616;2023-04-06T06:36:38;16.40;;;8.67;;
18364;SDS011;9309;52.126;11.616;2023-04-06T06:39:08;29.90;;;9.67;;
18364;SDS011;9309;52.126;11.616;2023-04-06T06:41:36;15.07;;;8.97;;
18364;SDS011;9309;52.126;11.616;2023-04-06T06:44:03;16.77;;;8.30;;
18364;SDS011;9309;52.126;11.616;2023-04-06T06:46:30;18.43;;;9.23;;
18364;SDS011;9309;52.126;11.616;2023-04-06T06:48:58;23.57;;;8.70;;
18364;SDS011;9309;52.126;11.616;2023-04-06T06:51:26;15.10;;;8.80;;
18364;SDS011;9309;52.126;11.616;2023-04-06T06:53:53;14.33;;;8.50;;
18364;SDS011;9309;52.126;11.616;2023-04-06T06:56:19;19.03;;;9.50;;
18364;SDS011;9309;52.126;11.616;2023-04-06T06:58:48;13.13;;;8.53;;
18364;SDS011;9309;52.126;11.616;2023-04-06T07:01:14;15.87;;;8.63;;
18364;SDS011;9309;52.126;11.616;2023-04-06T07:03:41;14.97;;;8.10;;
18364;SDS011;9309;52.126;11.616;2023-04-06T07:06:08;16.63;;;8.43;;
18364;SDS011;9309;52.126;11.616;2023-04-06T07:08:39;14.23;;;8.47;;
18364;SDS011;9309;52.126;11.616;2023-04-06T07:11:07;12.17;;;8.03;;
18364;SDS011;9309;52.126;11.616;2023-04-06T07:13:33;17.50;;;8.77;;
18364;SDS011;9309;52.126;11.616;2023-04-06T07:16:01;15.23;;;8.50;;
18364;SDS011;9309;52.126;11.616;2023-04-06T07:18:28;13.20;;;7.77;;
18364;SDS011;9309;52.126;11.616;2023-04-06T07:20:55;14.87;;;8.20;;
18364;SDS011;9309;52.126;11.616;2023-04-06T07:23:21;18.17;;;8.90;;
18364;SDS011;9309;52.126;11.616;2023-04-06T07:25:49;12.00;;;7.70;;
18364;SDS011;9309;52.126;11.616;2023-04-06T07:28:18;14.93;;;8.30;;
18364;SDS011;9309;52.126;11.616;2023-04-06T07:30:45;13.10;;;7.97;;
18364;SDS011;9309;52.126;11.616;2023-04-06T07:33:12;15.67;;;8.43;;
18364;SDS011;9309;52.126;11.616;2023-04-06T07:35:40;20.30;;;9.40;;
18364;SDS011;9309;52.126;11.616;2023-04-06T07:38:07;16.80;;;8.40;;
18364;SDS011;9309;52.126;11.616;2023-04-06T07:40:34;15.60;;;8.43;;
18364;SDS011;9309;52.126;11.616;2023-04-06T07:43:03;15.17;;;8.00;;
18364;SDS011;9309;52.126;11.616;2023-04-06T07:45:30;19.13;;;8.67;;
18364;SDS011;9309;52.126;11.616;2023-04-06T07:47:57;19.50;;;8.67;;
18364;SDS011;9309;52.126;11.616;2023-04-06T07:50:26;13.53;;;8.17;;
18364;SDS011;9309;52.126;11.616;2023-04-06T07:52:53;15.23;;;9.70;;
18364;SDS011;9309;52.126;11.616;2023-04-06T07:55:20;12.37;;;8.53;;
18364;SDS011;9309;52.126;11.616;2023-04-06T07:57:47;13.43;;;8.63;;
18364;SDS011;9309;52.126;11.616;2023-04-06T08:00:15;15.50;;;8.47;;
18364;SDS011;9309;52.126;11.616;2023-04-06T08:02:42;11.83;;;7.90;;
18364;SDS011;9309;52.126;11.616;2023-04-06T08:05:09;13.03;;;8.00;;
18364;SDS011;9309;52.126;11.616;2023-04-06T08:07:36;12.13;;;8.03;;
18364;SDS011;9309;52.126;11.616;2023-04-06T08:10:03;14.33;;;8.40;;
18364;SDS011;9309;52.126;11.616;2023-04-06T08:12:30;15.07;;;8.47;;
18364;SDS011;9309;52.126;11.616;2023-04-06T08:14:58;10.77;;;7.90;;
18364;SDS011;9309;52.126;11.616;2023-04-06T08:17:26;14.60;;;8.50;;
18364;SDS011;9309;52.126;11.616;2023-04-06T08:19:55;13.87;;;8.63;;
18364;SDS011;9309;52.126;11.616;2023-04-06T08:22:21;12.43;;;8.90;;
18364;SDS011;9309;52.126;11.616;2023-04-06T08:24:48;11.70;;;8.57;;
18364;SDS011;9309;52.126;11.616;2023-04-06T08:27:15;12.57;;;8.20;;
18364;SDS011;9309;52.126;11.616;2023-04-06T08:29:41;15.27;;;8.63;;
18364;SDS011;9309;52.126;11.616;2023-04-06T08:32:08;11.97;;;7.93;;
18364;SDS011;9309;52.126;11.616;2023-04-06T08:34:37;13.53;;;8.43;;
18364;SDS011;9309;52.126;11.616;2023-04-06T08:37:03;10.67;;;7.73;;
18364;SDS011;9309;52.126;11.616;2023-04-06T08:39:30;15.40;;;8.57;;
18364;SDS011;9309;52.126;11.616;2023-04-06T08:41:58;8.97;;;8.07;;
18364;SDS011;9309;52.126;11.616;2023-04-06T08:44:28;11.97;;;8.03;;
18364;SDS011;9309;52.126;11.616;2023-04-06T08:46:55;11.20;;;8.53;;
18364;SDS011;9309;52.126;11.616;2023-04-06T08:49:22;10.50;;;7.50;;
18364;SDS011;9309;52.126;11.616;2023-04-06T08:51:50;12.33;;;7.83;;
18364;SDS011;9309;52.126;11.616;2023-04-06T08:54:17;9.57;;;7.33;;
18364;SDS011;9309;52.126;11.616;2023-04-06T08:56:43;10.40;;;7.70;;
18364;SDS011;9309;52.126;11.616;2023-04-06T08:59:10;13.73;;;8.33;;
18364;SDS011;9309;52.126;11.616;2023-04-06T09:01:39;10.83;;;7.67;;
18364;SDS011;9309;52.126;11.616;2023-04-06T09:04:07;9.40;;;6.70;;
18364;SDS011;9309;52.126;11.616;2023-04-06T09:06:35;12.60;;;7.73;;
18364;SDS011;9309;52.126;11.616;2023-04-06T09:09:04;12.83;;;7.53;;
18364;SDS011;9309;52.126;11.616;2023-04-06T09:11:40;13.40;;;8.77;;
18364;SDS011;9309;52.126;11.616;2023-04-06T09:14:11;11.00;;;7.60;;
18364;SDS011;9309;52.126;11.616;2023-04-06T09:16:41;12.33;;;7.87;;
18364;SDS011;9309;52.126;11.616;2023-04-06T09:19:09;11.77;;;7.63;;
18364;SDS011;9309;52.126;11.616;2023-04-06T09:21:36;10.73;;;7.23;;
18364;SDS011;9309;52.126;11.616;2023-04-06T09:24:05;11.63;;;8.00;;
18364;SDS011;9309;52.126;11.616;2023-04-06T09:26:43;10.20;;;7.63;;
18364;SDS011;9309;52.126;11.616;2023-04-06T09:29:21;13.53;;;8.33;;
18364;SDS011;9309;52.126;11.616;2023-04-06T09:31:48;11.67;;;7.33;;
18364;SDS011;9309;52.126;11.616;2023-04-06T09:34:20;10.97;;;6.60;;
18364;SDS011;9309;52.126;11.616;2023-04-06T09:36:47;11.87;;;8.03;;
18364;SDS011;9309;52.126;11.616;2023-04-06T09:39:15;11.77;;;8.13;;
18364;SDS011;9309;52.126;11.616;2023-04-06T09:41:48;13.07;;;8.30;;
18364;SDS011;9309;52.126;11.616;2023-04-06T09:44:16;12.03;;;7.83;;
18364;SDS011;9309;52.126;11.616;2023-04-06T09:46:43;11.13;;;7.50;;
18364;SDS011;9309;52.126;11.616;2023-04-06T09:49:12;13.90;;;7.83;;
18364;SDS011;9309;52.126;11.616;2023-04-06T09:51:40;15.80;;;8.70;;
18364;SDS011;9309;52.126;11.616;2023-04-06T09:54:10;11.90;;;8.20;;
18364;SDS011;9309;52.126;11.616;2023-04-06T09:56:43;10.23;;;7.87;;
18364;SDS011;9309;52.126;11.616;2023-04-06T09:59:13;13.23;;;8.17;;
18364;SDS011;9309;52.126;11.616;2023-04-06T10:01:46;12.57;;;8.07;;
18364;SDS011;9309;52.126;11.616;2023-04-06T10:04:21;12.23;;;8.13;;
18364;SDS011;9309;52.126;11.616;2023-04-06T10:06:53;12.03;;;7.97;;
18364;SDS011;9309;52.126;11.616;2023-04-06T10:09:22;12.47;;;8.70;;
18364;SDS011;9309;52.126;11.616;2023-04-06T10:11:52;9.63;;;7.50;;
18364;SDS011;9309;52.126;11.616;2023-04-06T10:14:20;11.13;;;7.50;;
18364;SDS011;9309;52.126;11.616;2023-04-06T10:16:46;11.43;;;6.70;;
18364;SDS011;9309;52.126;11.616;2023-04-06T10:19:16;11.50;;;7.50;;
18364;SDS011;9309;52.126;11.616;2023-04-06T10:21:48;19.17;;;8.13;;
18364;SDS011;9309;52.126;11.616;2023-04-06T10:24:19;13.13;;;7.03;;
18364;SDS011;9309;52.126;11.616;2023-04-06T10:26:57;13.13;;;7.40;;
18364;SDS011;9309;52.126;11.616;2023-04-06T10:29:25;8.80;;;6.73;;
18364;SDS011;9309;52.126;11.616;2023-04-06T10:31:52;11.57;;;6.00;;
18364;SDS011;9309;52.126;11.616;2023-04-06T10:34:20;12.03;;;7.70;;
18364;SDS011;9309;52.126;11.616;2023-04-06T10:36:47;9.87;;;6.43;;
18364;SDS011;9309;52.126;11.616;2023-04-06T10:39:13;8.07;;;6.07;;
18364;SDS011;9309;52.126;11.616;2023-04-06T10:41:40;9.43;;;6.90;;
18364;SDS011;9309;52.126;11.616;2023-04-06T10:44:16;9.43;;;6.93;;
18364;SDS011;9309;52.126;11.616;2023-04-06T10:46:51;6.87;;;6.20;;
18364;SDS011;9309;52.126;11.616;2023-04-06T10:49:18;8.70;;;6.50;;
18364;SDS011;9309;52.126;11.616;2023-04-06T10:51:50;8.60;;;6.67;;
18364;SDS011;9309;52.126;11.616;2023-04-06T10:54:17;7.53;;;6.10;;
18364;SDS011;9309;52.126;11.616;2023-04-06T10:56:46;11.10;;;6.97;;
18364;SDS011;9309;52.126;11.616;2023-04-06T10:59:18;10.97;;;6.73;;
18364;SDS011;9309;52.126;11.616;2023-04-06T11:01:45;10.87;;;6.90;;
18364;SDS011;9309;52.126;11.616;2023-04-06T11:04:12;8.75;;;7.03;;
18364;SDS011;9309;52.126;11.616;2023-04-06T11:06:45;10.10;;;7.10;;
18364;SDS011;9309;52.126;11.616;2023-04-06T11:09:22;10.80;;;7.22;;
18364;SDS011;9309;52.126;11.616;2023-04-06T11:11:50;11.13;;;7.70;;
18364;SDS011;9309;52.126;11.616;2023-04-06T11:14:18;8.98;;;6.70;;
18364;SDS011;9309;52.126;11.616;2023-04-06T11:16:46;10.57;;;7.60;;
18364;SDS011;9309;52.126;11.616;2023-04-06T11:19:14;12.20;;;6.93;;
18364;SDS011;9309;52.126;11.616;2023-04-06T11:21:43;9.25;;;7.25;;
18364;SDS011;9309;52.126;11.616;2023-04-06T11:24:12;7.25;;;6.47;;
18364;SDS011;9309;52.126;11.616;2023-04-06T11:26:41;10.70;;;7.35;;
18364;SDS011;9309;52.126;11.616;2023-04-06T11:29:08;10.80;;;7.25;;
18364;SDS011;9309;52.126;11.616;2023-04-06T11:31:41;11.00;;;7.50;;
18364;SDS011;9309;52.126;11.616;2023-04-06T11:34:08;13.00;;;7.40;;
18364;SDS011;9309;52.126;11.616;2023-04-06T11:36:36;8.55;;;7.55;;
18364;SDS011;9309;52.126;11.616;2023-04-06T11:39:06;11.95;;;7.90;;
18364;SDS011;9309;52.126;11.616;2023-04-06T11:41:33;8.77;;;7.63;;
18364;SDS011;9309;52.126;11.616;2023-04-06T11:44:01;10.52;;;8.30;;
18364;SDS011;9309;52.126;11.616;2023-04-06T11:46:28;10.23;;;8.15;;
18364;SDS011;9309;52.126;11.616;2023-04-06T11:48:59;10.15;;;7.60;;
18364;SDS011;9309;52.126;11.616;2023-04-06T11:51:26;8.73;;;7.82;;
18364;SDS011;9309;52.126;11.616;2023-04-06T11:53:55;10.68;;;8.43;;
18364;SDS011;9309;52.126;11.616;2023-04-06T11:56:25;9.85;;;8.25;;
18364;SDS011;9309;52.126;11.616;2023-04-06T11:58:54;10.63;;;8.75;;
18364;SDS011;9309;52.126;11.616;2023-04-06T12:01:22;11.13;;;8.82;;
18364;SDS011;9309;52.126;11.616;2023-04-06T12:03:49;13.27;;;8.95;;
18364;SDS011;9309;52.126;11.616;2023-04-06T12:06:18;9.25;;;8.30;;
18364;SDS011;9309;52.126;11.616;2023-04-06T12:08:45;9.25;;;7.80;;
18364;SDS011;9309;52.126;11.616;2023-04-06T12:11:11;13.00;;;8.15;;
18364;SDS011;9309;52.126;11.616;2023-04-06T12:13:38;13.18;;;8.23;;
18364;SDS011;9309;52.126;11.616;2023-04-06T12:16:05;13.23;;;8.35;;
18364;SDS011;9309;52.126;11.616;2023-04-06T12:18:38;12.60;;;7.88;;
18364;SDS011;9309;52.126;11.616;2023-04-06T12:21:12;9.20;;;8.25;;
18364;SDS011;9309;52.126;11.616;2023-04-06T12:23:41;9.45;;;8.00;;
18364;SDS011;9309;52.126;11.616;2023-04-06T12:26:11;9.60;;;8.63;;
18364;SDS011;9309;52.126;11.616;2023-04-06T12:28:39;9.75;;;7.72;;
18364;SDS011;9309;52.126;11.616;2023-04-06T12:31:06;8.95;;;7.32;;
18364;SDS011;9309;52.126;11.616;2023-04-06T12:33:34;11.85;;;7.72;;
18364;SDS011;9309;52.126;11.616;2023-04-06T12:36:00;10.63;;;8.25;;
18364;SDS011;9309;52.126;11.616;2023-04-06T12:38:27;8.82;;;7.25;;
18364;SDS011;9309;52.126;11.616;2023-04-06T12:40:57;13.63;;;8.43;;
18364;SDS011;9309;52.126;11.616;2023-04-06T12:43:23;11.55;;;7.65;;
18364;SDS011;9309;52.126;11.616;2023-04-06T12:45:50;10.80;;;7.82;;
18364;SDS011;9309;52.126;11.616;2023-04-06T12:48:17;10.35;;;7.57;;
18364;SDS011;9309;52.126;11.616;2023-04-06T12:50:43;9.80;;;7.50;;
18364;SDS011;9309;52.126;11.616;2023-04-06T12:53:10;10.10;;;7.90;;
18364;SDS011;9309;52.126;11.616;2023-04-06T12:55:37;10.65;;;6.97;;
18364;SDS011;9309;52.126;11.616;2023-04-06T12:58:04;9.93;;;7.28;;
18364;SDS011;9309;52.126;11.616;2023-04-06T13:00:31;8.38;;;7.10;;
18364;SDS011;9309;52.126;11.616;2023-04-06T13:02:58;9.40;;;7.20;;
18364;SDS011;9309;52.126;11.616;2023-04-06T13:05:28;11.05;;;6.78;;
18364;SDS011;9309;52.126;11.616;2023-04-06T13:07:55;10.65;;;6.75;;
18364;SDS011;9309;52.126;11.616;2023-04-06T13:10:22;8.52;;;7.32;;
18364;SDS011;9309;52.126;11.616;2023-04-06T13:12:49;12.98;;;7.90;;
18364;SDS011;9309;52.126;11.616;2023-04-06T13:15:17;8.73;;;7.25;;
18364;SDS011;9309;52.126;11.616;2023-04-06T13:17:44;9.55;;;6.95;;
18364;SDS011;9309;52.126;11.616;2023-04-06T13:20:11;8.70;;;7.47;;
18364;SDS011;9309;52.126;11.616;2023-04-06T13:22:38;9.63;;;7.00;;
18364;SDS011;9309;52.126;11.616;2023-04-06T13:25:05;12.20;;;7.28;;
18364;SDS011;9309;52.126;11.616;2023-04-06T13:27:32;9.57;;;7.35;;
18364;SDS011;9309;52.126;11.616;2023-04-06T13:30:00;9.60;;;7.38;;
18364;SDS011;9309;52.126;11.616;2023-04-06T13:32:29;12.88;;;7.43;;
18364;SDS011;9309;52.126;11.616;2023-04-06T13:34:56;7.63;;;6.65;;
18364;SDS011;9309;52.126;11.616;2023-04-06T13:37:23;9.85;;;6.78;;
18364;SDS011;9309;52.126;11.616;2023-04-06T13:39:50;8.82;;;6.60;;
18364;SDS011;9309;52.126;11.616;2023-04-06T13:42:17;8.25;;;5.88;;
18364;SDS011;9309;52.126;11.616;2023-04-06T13:44:44;14.55;;;7.20;;
18364;SDS011;9309;52.126;11.616;2023-04-06T13:47:13;7.90;;;6.70;;
18364;SDS011;9309;52.126;11.616;2023-04-06T13:49:41;10.07;;;6.95;;
18364;SDS011;9309;52.126;11.616;2023-04-06T13:52:08;8.68;;;6.70;;
18364;SDS011;9309;52.126;11.616;2023-04-06T13:54:35;7.45;;;6.75;;
18364;SDS011;9309;52.126;11.616;2023-04-06T13:57:02;9.20;;;6.70;;
18364;SDS011;9309;52.126;11.616;2023-04-06T13:59:31;11.60;;;6.70;;
18364;SDS011;9309;52.126;11.616;2023-04-06T14:01:58;10.10;;;7.03;;
18364;SDS011;9309;52.126;11.616;2023-04-06T14:04:25;9.10;;;7.30;;
18364;SDS011;9309;52.126;11.616;2023-04-06T14:06:53;7.97;;;6.65;;
18364;SDS011;9309;52.126;11.616;2023-04-06T14:09:20;7.85;;;6.93;;
18364;SDS011;9309;52.126;11.616;2023-04-06T14:11:46;6.95;;;6.28;;
18364;SDS011;9309;52.126;11.616;2023-04-06T14:14:13;8.00;;;6.43;;
18364;SDS011;9309;52.126;11.616;2023-04-06T14:16:40;11.25;;;6.97;;
18364;SDS011;9309;52.126;11.616;2023-04-06T14:19:08;8.63;;;7.13;;
18364;SDS011;9309;52.126;11.616;2023-04-06T14:21:36;10.13;;;6.80;;
18364;SDS011;9309;52.126;11.616;2023-04-06T14:24:06;8.40;;;7.50;;
18364;SDS011;9309;52.126;11.616;2023-04-06T14:26:33;11.23;;;7.70;;
18364;SDS011;9309;52.126;11.616;2023-04-06T14:29:00;11.70;;;7.50;;
18364;SDS011;9309;52.126;11.616;2023-04-06T14:31:27;12.37;;;8.07;;
18364;SDS011;9309;52.126;11.616;2023-04-06T14:33:54;9.87;;;7.30;;
18364;SDS011;9309;52.126;11.616;2023-04-06T14:36:21;10.90;;;7.97;;
18364;SDS011;9309;52.126;11.616;2023-04-06T14:38:47;9.70;;;7.23;;
18364;SDS011;9309;52.126;11.616;2023-04-06T14:41:16;9.40;;;7.10;;
18364;SDS011;9309;52.126;11.616;2023-04-06T14:43:43;11.30;;;7.77;;
18364;SDS011;9309;52.126;11.616;2023-04-06T14:46:10;12.90;;;8.20;;
18364;SDS011;9309;52.126;11.616;2023-04-06T14:48:37;10.60;;;7.40;;